Flight Track Log - Related Links

Times and Time Zones

All times are in EDT time to prevent confusion due to time zone crossing. See the A6-EDY flight status page for this flight to view local times or setup timezone preferences in your user account.

Time Position Orientation Groundspeed Altitude Reporting Facility
EDT Latitude Longitude Course Direction KTS MPH feet Rate Location/Type
Sun 02:11:07 AM -37.0150 174.7770 250° West 149 171 200  Level FlightAware ADS-B
Sun 02:11:37 AM -37.0210 174.7520 253° West 143 165 1,100 1,800 Climbing FlightAware ADS-B
Sun 02:11:47 AM -37.0230 174.7470 243° Southwest 143 165 1,400 1,200 Climbing FlightAware ADS-B
Sun 02:12:32 AM -37.0330 174.7100 251° West 144 166 2,200 1,412 Climbing FlightAware ADS-B
Sun 02:13:12 AM -37.0430 174.6770 249° West 165 190 3,400 2,829 Climbing FlightAware ADS-B
Sun 02:13:42 AM -37.0540 174.6350 252° West 215 247 5,500 2,291 Climbing FlightAware ADS-B
Sun 02:14:07 AM -37.0620 174.6060 251° West 215 247 5,500 2,550 Level FlightAware ADS-B
Sun 02:14:22 AM -37.0670 174.5860 253° West 233 268 7,200 2,800 Climbing FlightAware ADS-B
Sun 02:14:52 AM -37.0790 174.5450 250° West 238 274 7,600 2,965 Climbing FlightAware ADS-B
Sun 02:15:47 AM -37.1130 174.4800 237° Southwest 254 292 11,400 2,533 Climbing FlightAware ADS-B
Sun 02:16:22 AM -37.1300 174.4360 244° Southwest 254 292 11,400  Level FlightAware ADS-B
Sun 02:17:12 AM -37.1520 174.3800 244° Southwest 254 292 11,400 238 Level FlightAware ADS-B
Sun 02:19:00 AM -37.1431 174.1495 273° West  Level Estimated
Sun 02:20:00 AM -37.1380 174.0215 273° West  Level Estimated
Sun 02:21:00 AM -37.1327 173.8934 273° West  Level Estimated
Sun 02:22:00 AM -37.1273 173.7654 273° West  Level Estimated
Sun 02:23:00 AM -37.1218 173.6375 273° West  Level Estimated
Sun 02:24:00 AM -37.1161 173.5095 273° West  Level Estimated
Sun 02:25:00 AM -37.1103 173.3815 273° West  Level Estimated
Sun 02:26:00 AM -37.1043 173.2536 273° West  Level Estimated
Sun 02:27:00 AM -37.0983 173.1257 273° West  Level Estimated
Sun 02:28:00 AM -37.0920 172.9978 273° West  Level Estimated
Sun 02:29:00 AM -37.0857 172.8700 274° West  Level Estimated
Sun 02:30:00 AM -37.0792 172.7422 274° West  Level Estimated
Sun 02:31:00 AM -37.0725 172.6143 274° West  Level Estimated
Sun 02:32:00 AM -37.0657 172.4865 274° West  Level Estimated
Sun 02:33:00 AM -37.0588 172.3588 274° West  Level Estimated
Sun 02:34:00 AM -37.0518 172.2310 274° West  Level Estimated
Sun 02:35:00 AM -37.0446 172.1033 274° West  Level Estimated
Sun 02:36:00 AM -37.0373 171.9756 274° West  Level Estimated
Sun 02:37:00 AM -37.0298 171.8479 274° West  Level Estimated
Sun 02:38:00 AM -37.0222 171.7203 274° West  Level Estimated
Sun 02:39:00 AM -37.0145 171.5927 274° West  Level Estimated
Sun 02:40:00 AM -37.0066 171.4651 274° West  Level Estimated
Sun 02:41:00 AM -36.9986 171.3375 274° West  Level Estimated
Sun 02:42:00 AM -36.9905 171.2099 275° West  Level Estimated
Sun 02:43:00 AM -36.9822 171.0824 275° West  Level Estimated
Sun 02:44:00 AM -36.9738 170.9549 275° West  Level Estimated
Sun 02:45:00 AM -36.9652 170.8275 275° West  Level Estimated
Sun 02:46:00 AM -36.9565 170.7000 275° West  Level Estimated
Sun 02:47:00 AM -36.9477 170.5726 275° West  Level Estimated
Sun 02:48:00 AM -36.9387 170.4453 275° West  Level Estimated
Sun 02:49:00 AM -36.9296 170.3179 275° West  Level Estimated
Sun 02:50:00 AM -36.9204 170.1906 275° West  Level Estimated
Sun 02:51:00 AM -36.9110 170.0634 275° West  Level Estimated
Sun 02:52:00 AM -36.9015 169.9361 275° West  Level Estimated
Sun 02:53:00 AM -36.8919 169.8089 275° West  Level Estimated
Sun 02:54:00 AM -36.8821 169.6817 275° West  Level Estimated
Sun 02:55:00 AM -36.8722 169.5546 276° West  Level Estimated
Sun 02:56:00 AM -36.8621 169.4274 276° West  Level Estimated
Sun 02:57:00 AM -36.8520 169.3004 276° West  Level Estimated
Sun 02:58:00 AM -36.8416 169.1733 276° West  Level Estimated
Sun 02:59:00 AM -36.8312 169.0463 276° West  Level Estimated
Sun 03:00:00 AM -36.8206 168.9193 276° West  Level Estimated
Sun 03:01:00 AM -36.8099 168.7923 276° West  Level Estimated
Sun 03:02:00 AM -36.7990 168.6654 276° West  Level Estimated
Sun 03:03:00 AM -36.7880 168.5386 276° West  Level Estimated
Sun 03:04:00 AM -36.7769 168.4117 276° West  Level Estimated
Sun 03:05:00 AM -36.7657 168.2849 276° West  Level Estimated
Sun 03:06:00 AM -36.7542 168.1582 276° West  Level Estimated
Sun 03:07:00 AM -36.7427 168.0314 276° West  Level Estimated
Sun 03:08:00 AM -36.7311 167.9048 277° West  Level Estimated
Sun 03:09:00 AM -36.7193 167.7781 277° West  Level Estimated
Sun 03:10:00 AM -36.7073 167.6515 277° West  Level Estimated
Sun 03:11:00 AM -36.6953 167.5249 277° West  Level Estimated
Sun 03:12:00 AM -36.6831 167.3984 277° West  Level Estimated
Sun 03:13:00 AM -36.6707 167.2719 277° West  Level Estimated
Sun 03:14:00 AM -36.6582 167.1455 277° West  Level Estimated
Sun 03:15:00 AM -36.6456 167.0190 277° West  Level Estimated
Sun 03:16:00 AM -36.6329 166.8927 277° West  Level Estimated
Sun 03:17:00 AM -36.6200 166.7664 277° West  Level Estimated
Sun 03:18:00 AM -36.6070 166.6401 277° West  Level Estimated
Sun 03:19:00 AM -36.5939 166.5139 277° West  Level Estimated
Sun 03:20:00 AM -36.5806 166.3877 277° West  Level Estimated
Sun 03:21:00 AM -36.5672 166.2615 277° West  Level Estimated
Sun 03:22:00 AM -36.5537 166.1354 278° West  Level Estimated
Sun 03:23:00 AM -36.5400 166.0093 278° West  Level Estimated
Sun 03:24:00 AM -36.5262 165.8833 278° West  Level Estimated
Sun 03:25:00 AM -36.5123 165.7574 278° West  Level Estimated
Sun 03:26:00 AM -36.4982 165.6314 278° West  Level Estimated
Sun 03:27:00 AM -36.4840 165.5055 278° West  Level Estimated
Sun 03:27:47 AM -34.1494 153.0323 100° East 38,000  Level Aus ATC (Calculated)
Sun 03:28:00 AM -36.4697 165.3797 278° West  Level Estimated
Sun 03:29:00 AM -34.1317 152.8596 277° West  Level Estimated
Sun 03:29:46 AM -34.1570 153.0987 100° East 38,000  Level Aus ATC (Calculated)
Sun 03:30:00 AM -34.1081 152.7191 281° West  Level FlightAware Approximate
Sun 03:30:47 AM -34.1570 153.0987 100° East 38,000  Level Aus ATC (Calculated)
Sun 03:31:00 AM -34.1390 152.9232 276° West  Level Estimated
Sun 03:32:00 AM -34.1371 152.9259 278° West  Level FlightAware Approximate
Sun 03:33:00 AM -34.1206 152.7840 278° West  Level FlightAware Approximate
Sun 03:34:00 AM -34.1040 152.6421 278° West  Level FlightAware Approximate
Sun 03:35:00 AM -34.0894 152.4999 277° West  Level Estimated
Sun 03:35:10 AM -34.1789 153.2919 100° East 38,000  Level Aus ATC (Calculated)
Sun 03:35:10 AM -34.1789 153.2919 100° East 38,000 49 Level Aus ATC (Calculated)
Sun 03:36:00 AM -34.0743 152.3578 277° West  Level FlightAware Approximate
Sun 03:37:00 AM -34.1518 153.0310 277° West  Level FlightAware Approximate
Sun 03:38:00 AM -34.1367 152.8888 277° West  Level FlightAware Approximate
Sun 03:39:00 AM -34.1215 152.7466 277° West  Level FlightAware Approximate
Sun 03:40:00 AM -34.1073 152.6044 225° Southwest  Level Estimated
Sun 03:41:00 AM -34.0920 152.4623 225° Southwest  Level Estimated
Sun 03:42:00 AM -34.0766 152.3202 225° Southwest  Level Estimated
Sun 03:43:00 AM -34.0610 152.1782 225° Southwest  Level Estimated
Sun 03:44:00 AM -34.0452 152.0363 225° Southwest  Level Estimated
Sun 03:44:20 AM -34.2306 153.7591 100° East 38,000  Level Aus ATC (Calculated)
Sun 03:46:00 AM -34.2068 153.5217 225° Southwest  Level Estimated
Sun 03:47:00 AM -34.1923 153.3793 225° Southwest  Level Estimated
Sun 03:48:00 AM -34.1776 153.2369 225° Southwest  Level Estimated
Sun 03:49:00 AM -34.1627 153.0946 225° Southwest  Level Estimated
Sun 03:50:00 AM -34.1477 152.9524 225° Southwest  Level Estimated
Sun 03:51:00 AM -34.1326 152.8102 225° Southwest  Level Estimated
Sun 03:52:00 AM -34.1172 152.6681 225° Southwest  Level Estimated
Sun 03:52:35 AM -34.2682 154.1098 100° East 38,000  Level Aus ATC (Calculated)
Sun 03:54:00 AM -34.2483 153.9079 225° Southwest  Level Estimated
Sun 03:55:00 AM -34.2341 153.7654 225° Southwest  Level Estimated
Sun 03:55:53 AM -34.2821 154.2414 101° East 38,000  Level Aus ATC (Calculated)
Sun 03:56:00 AM -34.2197 153.6229 225° Southwest  Level Estimated
Sun 03:57:00 AM -34.2666 154.0831 225° Southwest  Level Estimated
Sun 03:58:00 AM -34.2526 153.9415 225° Southwest  Level Estimated
Sun 03:59:00 AM -34.2385 153.7998 225° Southwest  Level Estimated
Sun 03:59:09 AM -34.2941 154.3566 101° East 38,000  Level Aus ATC (Calculated)
Sun 04:01:00 AM -34.2686 154.0943 225° Southwest  Level Estimated
Sun 04:02:00 AM -34.2546 153.9527 225° Southwest  Level Estimated
Sun 04:03:00 AM -34.2404 153.8110 225° Southwest  Level Estimated
Sun 04:03:55 AM -34.3148 154.5583 101° East 38,000  Level Aus ATC (Calculated)
Sun 04:04:00 AM -34.2261 153.6694 225° Southwest  Level Estimated
Sun 04:05:00 AM -34.3002 154.4046 225° Southwest  Level Estimated
Sun 04:06:00 AM -34.2864 154.2628 225° Southwest  Level Estimated
Sun 04:07:00 AM -34.2726 154.1211 225° Southwest  Level Estimated
Sun 04:08:00 AM -34.2585 153.9794 225° Southwest  Level Estimated
Sun 04:08:55 AM -34.3378 154.7853 102° East 38,000  Level Aus ATC (Calculated)
Sun 04:09:00 AM -34.2443 153.8378 225° Southwest  Level Estimated
Sun 04:10:00 AM -34.3233 154.6316 225° Southwest  Level Estimated
Sun 04:10:27 AM -34.3472 154.8799 102° East 38,000  Level Aus ATC (Calculated)
Sun 04:12:00 AM -34.3293 154.6889 225° Southwest  Level Estimated
Sun 04:13:00 AM -34.3176 154.5657 225° Southwest  Level Estimated
Sun 04:13:54 AM -34.3612 155.0219 102° East 38,000  Level Aus ATC (Calculated)
Sun 04:14:00 AM -34.3058 154.4425 225° Southwest  Level Estimated
Sun 04:15:00 AM -34.3468 154.8657 225° Southwest  Level Estimated
Sun 04:16:00 AM -34.3335 154.7238 225° Southwest  Level Estimated
Sun 04:16:24 AM -34.5567 156.1251 225° Southwest 417 480 40,000  Level Aus ATC (RADAR)
Sun 04:16:59 AM -34.5473 156.0416 278° West 415 478 40,000  Level Aus ATC (RADAR)
Sun 04:18:08 AM -34.5120 155.8793 285° West 415 478 40,000 48 Level Aus ATC (RADAR)
Sun 04:19:03 AM -34.4864 155.7487 283° West 449 517 40,100 50 Climbing Aus ATC (RADAR)
Sun 04:20:08 AM -34.4580 155.5967 283° West 418 481 40,100  Level Aus ATC (RADAR)
Sun 04:20:43 AM -34.4428 155.5143 283° West 417 480 40,100 -122 Level Aus ATC (RADAR)
Sun 04:20:57 AM -34.4410 155.4990 282° West 431 496 40,000  Descending FlightAware ADS-B
Sun 04:21:23 AM -34.4262 155.4205 282° West 416 479 40,100  Climbing Aus ATC (RADAR)
Sun 04:21:32 AM -34.4250 155.4160 283° West 430 495 40,000  Descending FlightAware ADS-B
Sun 04:21:58 AM -34.4089 155.3389 283° West 415 478 40,100  Climbing Aus ATC (RADAR)
Sun 04:22:12 AM -34.4080 155.3300 283° West 429 494 40,000 -111 Descending FlightAware ADS-B
Sun 04:22:52 AM -34.3880 155.2280 283° West 428 493 40,000 146 Level FlightAware ADS-B
Sun 04:22:53 AM -34.3838 155.2108 283° West 415 478 40,100 194 Climbing Aus ATC (RADAR)
Sun 04:23:23 AM -34.3692 155.1422 283° West 408 470 40,100  Level Aus ATC (RADAR)
Sun 04:23:38 AM -34.3646 155.1078 279° West 406 467 40,100 -316 Level Aus ATC (RADAR)
Sun 04:23:42 AM -34.3700 155.1130 279° West 425 489 40,000  Descending FlightAware ADS-B
Sun 04:24:13 AM -34.3582 155.0235 279° West 417 480 40,100  Climbing Aus ATC (RADAR)
Sun 04:24:22 AM -34.3600 155.0090 279° West 431 496 40,000 -111 Descending FlightAware ADS-B
Sun 04:25:07 AM -34.3490 154.9120 278° West 434 499 40,000 70 Level FlightAware ADS-B
Sun 04:25:48 AM -34.3355 154.7948 278° West 423 487 40,100  Climbing Aus ATC (RADAR)
Sun 04:25:52 AM -34.3380 154.8060 278° West 436 502 40,000 -136 Descending FlightAware ADS-B
Sun 04:26:32 AM -34.3270 154.7020 277° West 435 501 40,000  Level FlightAware ADS-B
Sun 04:27:12 AM -34.3180 154.6100 277° West 434 499 40,000  Level FlightAware ADS-B
Sun 04:27:57 AM -34.3060 154.4970 277° West 433 498 40,000 86 Level FlightAware ADS-B
Sun 04:28:22 AM -34.2965 154.4226 277° West 419 482 40,100 150 Climbing Aus ATC (RADAR)
Sun 04:28:37 AM -34.2921 154.3868 278° West 420 483 40,100 -200 Level Aus ATC (RADAR)
Sun 04:28:52 AM -34.2920 154.3680 278° West 432 497 40,000  Descending FlightAware ADS-B
Sun 04:29:12 AM -34.2834 154.3032 278° West 421 484 40,100  Climbing Aus ATC (RADAR)
Sun 04:29:22 AM -34.2830 154.2900 278° West 432 497 40,000 -646 Descending FlightAware ADS-B
Sun 04:30:17 AM -34.2690 154.1600 277° West 430 495 39,400 -774 Descending FlightAware ADS-B
Sun 04:30:55 AM -34.2570 154.0587 277° West 419 482 38,800 -900 Descending Aus ATC (RADAR)
Sun 04:30:57 AM -34.2590 154.0720 277° West 435 501 38,800 -1,000 Level FlightAware ADS-B
Sun 04:31:37 AM -34.2480 153.9690 277° West 439 505 38,100 -1,059 Descending FlightAware ADS-B
Sun 04:32:05 AM -34.2379 153.8891 277° West 423 487 37,600 -933 Descending Aus ATC (RADAR)
Sun 04:32:22 AM -34.2360 153.8640 277° West 436 502 37,400 -857 Descending FlightAware ADS-B
Sun 04:32:40 AM -34.2295 153.8050 277° West 422 486 37,100 -1,200 Descending Aus ATC (RADAR)
Sun 04:32:57 AM -34.2250 153.7720 277° West 435 501 36,700 -1,433 Descending FlightAware ADS-B
Sun 04:33:47 AM -34.2130 153.6590 277° West 438 504 35,500 -1,479 Descending FlightAware ADS-B
Sun 04:34:10 AM -34.2039 153.5881 277° West 421 484 34,900 -1,500 Descending Aus ATC (RADAR)
Sun 04:34:27 AM -34.2020 153.5630 277° West 434 499 34,500 -1,886 Descending FlightAware ADS-B
Sun 04:34:45 AM -34.1946 153.5039 277° West 424 488 33,800 -1,950 Descending Aus ATC (RADAR)
Sun 04:35:07 AM -34.1890 153.4590 277° West 428 493 33,200 -1,645 Descending FlightAware ADS-B
Sun 04:35:47 AM -34.1771 153.3580 277° West 414 476 32,100 -1,500 Descending Aus ATC (RADAR)
Sun 04:35:47 AM -34.1800 153.3750 277° West 418 481 32,200 -1,371 Climbing FlightAware ADS-B
Sun 04:36:22 AM -34.1682 153.2787 277° West 405 466 31,300 -1,467 Descending Aus ATC (RADAR)
Sun 04:36:32 AM -34.1680 153.2730 277° West 408 470 31,100 -1,964 Descending FlightAware ADS-B
Sun 04:37:17 AM -34.1550 153.1690 279° West 408 470 29,500 -1,906 Descending FlightAware ADS-B
Sun 04:37:57 AM -34.1450 153.0820 278° West 401 461 28,400 -1,725 Descending FlightAware ADS-B
Sun 04:38:37 AM -34.1340 152.9870 278° West 394 453 27,200 -1,754 Descending FlightAware ADS-B
Sun 04:39:02 AM -34.1258 152.9252 278° West 386 444 26,500 -1,700 Descending Aus ATC (RADAR)
Sun 04:39:37 AM -34.1190 152.8630 278° West 387 445 25,500 -1,520 Descending FlightAware ADS-B
Sun 04:40:17 AM -34.1090 152.7790 278° West 379 436 24,600 -1,425 Descending FlightAware ADS-B
Sun 04:40:57 AM -34.0990 152.7010 279° West 373 429 23,600 -1,835 Descending FlightAware ADS-B
Sun 04:41:42 AM -34.0860 152.6000 279° West 378 435 22,000 -1,765 Descending FlightAware ADS-B
Sun 04:42:22 AM -34.0770 152.5160 277° West 367 422 21,100 -1,360 Descending FlightAware ADS-B
Sun 04:42:57 AM -34.0710 152.4480 276° West 363 418 20,300 -1,325 Descending FlightAware ADS-B
Sun 04:43:39 AM -34.0626 152.3540 276° West 349 402 19,400 -1,320 Descending Aus ATC (RADAR)
Sun 04:43:47 AM -34.0620 152.3530 276° West 353 406 19,200 -1,250 Descending FlightAware ADS-B
Sun 04:44:27 AM -34.0550 152.2750 276° West 343 395 18,400 -1,429 Descending FlightAware ADS-B
Sun 04:44:29 AM -34.0534 152.2584 276° West 337 388 18,200 -1,467 Descending Aus ATC (RADAR)
Sun 04:45:12 AM -34.0470 152.1900 276° West 337 388 17,300 -1,518 Descending FlightAware ADS-B
Sun 04:45:52 AM -34.0390 152.1140 277° West 336 387 16,100 -1,725 Descending FlightAware ADS-B
Sun 04:46:32 AM -34.0320 152.0420 277° West 334 384 15,000 -1,667 Descending FlightAware ADS-B
Sun 04:47:04 AM -34.0250 151.9711 277° West 323 372 14,100 -1,600 Descending Aus ATC (RADAR)
Sun 04:47:17 AM -34.0240 151.9590 277° West 326 375 13,800 -1,714 Descending FlightAware ADS-B
Sun 04:47:39 AM -34.0188 151.9079 277° West 319 367 13,100 -1,886 Descending Aus ATC (RADAR)
Sun 04:47:52 AM -34.0170 151.8930 277° West 326 375 12,700 -1,759 Descending FlightAware ADS-B
Sun 04:48:37 AM -34.0090 151.8120 277° West 322 371 11,400 -1,377 Descending FlightAware ADS-B
Sun 04:48:53 AM -34.0052 151.7743 277° West 311 358 11,300 -581 Descending Aus ATC (RADAR)
Sun 04:49:08 AM -34.0026 151.7491 277° West 302 348 11,100 -621 Descending Aus ATC (RADAR)
Sun 04:49:22 AM -34.0020 151.7390 277° West 296 341 11,000 -789 Descending FlightAware ADS-B
Sun 04:49:46 AM -33.9966 151.6896 277° West 285 328 10,600 -1,050 Descending Aus ATC (RADAR)
Sun 04:50:02 AM -33.9950 151.6760 277° West 282 325 10,300 -1,304 Descending FlightAware ADS-B
Sun 04:50:32 AM -33.9900 151.6270 277° West 280 322 9,600 -1,467 Descending FlightAware ADS-B
Sun 04:50:47 AM -33.9880 151.6040 276° West 281 323 9,200 -1,080 Descending FlightAware ADS-B
Sun 04:51:22 AM -33.9820 151.5510 278° West 270 311 8,700 -686 Descending FlightAware ADS-B
Sun 04:51:57 AM -33.9770 151.4990 277° West 252 290 8,400 -536 Descending FlightAware ADS-B
Sun 04:52:18 AM -33.9729 151.4627 277° West 242 278 8,200 -800 Descending Aus ATC (RADAR)
Sun 04:52:27 AM -33.9720 151.4590 277° West 244 281 8,000 -1,000 Descending FlightAware ADS-B
Sun 04:52:42 AM -33.9710 151.4430 274° West 245 282 7,800 -947 Descending FlightAware ADS-B
Sun 04:53:17 AM -33.9800 151.3950 257° West 7,200 -975 Descending FlightAware ADS-B
Sun 04:53:37 AM -33.9970 151.3860 204° Southwest 7,000 -933 Descending FlightAware ADS-B
Sun 04:54:02 AM -34.0290 151.3790 190° South 227 261 6,500 -1,091 Descending FlightAware ADS-B
Sun 04:54:32 AM -34.0610 151.3720 190° South 233 268 6,000 -1,059 Descending FlightAware ADS-B
Sun 04:54:53 AM -34.0876 151.3657 190° South 234 269 5,600 -1,000 Descending Aus ATC (RADAR)
Sun 04:55:02 AM -34.0930 151.3640 190° South 233 268 5,500 -882 Descending FlightAware ADS-B
Sun 04:55:27 AM -34.1200 151.3580 190° South 232 267 5,100 -1,200 Descending FlightAware ADS-B
Sun 04:55:57 AM -34.1510 151.3520 189° South 233 268 4,400 -1,333 Descending FlightAware ADS-B
Sun 04:56:12 AM -34.1680 151.3450 199° South 234 269 4,100 -960 Descending FlightAware ADS-B
Sun 04:56:22 AM -34.1750 151.3360 227° Southwest 227 261 4,000 -720 Descending FlightAware ADS-B
Sun 04:56:37 AM -34.1820 151.3200 242° Southwest 215 247 3,800 -545 Descending FlightAware ADS-B
Sun 04:56:55 AM -34.1892 151.2941 242° Southwest 217 250 3,700 -800 Descending Aus ATC (RADAR)
Sun 04:57:07 AM -34.1900 151.2860 242° Southwest 210 242 3,400 -1,091 Descending FlightAware ADS-B
Sun 04:57:17 AM -34.1870 151.2750 288° West 205 236 3,300 -480 Descending FlightAware ADS-B
Sun 04:57:32 AM -34.1780 151.2610 308° West 209 241 3,200 -267 Descending FlightAware ADS-B
Sun 04:58:02 AM -34.1570 151.2360 315° West 210 242 3,100 -267 Descending FlightAware ADS-B
Sun 04:58:17 AM -34.1440 151.2290 336° Northwest 208 239 3,000 -194 Descending FlightAware ADS-B
Sun 04:58:33 AM -34.1256 151.2227 336° Northwest 206 237 3,000 -240 Level Aus ATC (RADAR)
Sun 04:58:42 AM -34.1210 151.2220 336° Northwest 181 208 2,900 -769 Descending FlightAware ADS-B
Sun 04:59:12 AM -34.0960 151.2150 347° North 182 209 2,500 -792 Descending FlightAware ADS-B
Sun 04:59:35 AM -34.0740 151.2093 347° North 178 205 2,200 -1,000 Descending Aus ATC (RADAR)
Sun 04:59:42 AM -34.0720 151.2090 347° North 166 191 2,000 -938 Descending FlightAware ADS-B
Sun 05:00:07 AM -34.0530 151.2040 348° North 164 189 1,700 -873 Descending FlightAware ADS-B
Sun 05:00:37 AM -34.0320 151.1980 347° North 134 154 1,200 -808 Descending FlightAware ADS-B
Sun 05:00:59 AM -34.0151 151.1940 347° North 136 157 1,000 -720 Descending Aus ATC (RADAR)
Sun 05:01:02 AM -34.0160 151.1940 347° North 134 154 900 -667 Descending FlightAware ADS-B
Sun 05:01:17 AM -34.0070 151.1920 350° North 133 153 800 -563 Descending FlightAware ADS-B
Sun 05:01:34 AM -33.9940 151.1884 350° North 131 151 600 -800 Descending Aus ATC (RADAR)
Sun 05:01:47 AM -33.9890 151.1870 350° North 131 151 400 -632 Descending FlightAware ADS-B
Sun 05:02:12 AM -33.9740 151.1830 348° North 132 152 200 -480 Descending FlightAware ADS-B
Sun 05:02:42 AM -33.9550 151.1780 348° North 115 132 -400 Descending FlightAware ADS-B
Sun 05:03:07 AM -33.9450 151.1760 351° North 72 83  Level FlightAware ADS-B
Sun 05:03:22 AM -33.9410 151.1750 348° North 41 47  Level FlightAware ADS-B
Sun 05:03:47 AM -33.9390 151.1740 337° Northwest 8 9  Level FlightAware ADS-B

Login

Don't have an account? Register now (free) for customized features, flight alerts, and more!